Time;durP1;ratioP1;P1;durP2;ratioP2;P2;SDS_P1;SDS_P2;PMS_P1;PMS_P2;Temp;Humidity;BMP_temperature;BMP_pressure;BME280_temperature;BME280_humidity;BME280_pressure;Samples;Min_cycle;Max_cycle;Signal;HPM_P1;HPM_P2
2021/12/15 00:01:27;;;;;;;29.13;15.23;;;;;;;3.52;100.00;95774.16;4942828;28;20193;-73
2021/12/15 00:03:53;;;;;;;31.20;15.17;;;;;;;3.45;100.00;95779.56;4951168;28;20297;-73
2021/12/15 00:06:19;;;;;;;22.93;13.50;;;;;;;3.29;100.00;95791.94;4951490;29;20300;-73
2021/12/15 00:08:48;;;;;;;21.87;13.00;;;;;;;3.37;100.00;95796.94;4950114;28;20213;-74
2021/12/15 00:11:15;;;;;;;23.10;13.50;;;;;;;3.42;100.00;95790.38;4950430;29;20257;-73
2021/12/15 00:13:43;;;;;;;23.47;13.83;;;;;;;3.50;100.00;95792.66;4951095;29;20257;-73
2021/12/15 00:16:10;;;;;;;23.40;13.30;;;;;;;3.44;100.00;95796.94;4933418;29;20194;-73
2021/12/15 00:18:41;;;;;;;24.87;14.43;;;;;;;3.56;100.00;95796.50;4951432;28;20233;-74
2021/12/15 00:21:09;;;;;;;23.10;12.63;;;;;;;3.48;100.00;95794.19;4954324;29;20212;-74
2021/12/15 00:23:35;;;;;;;19.47;12.53;;;;;;;3.40;100.00;95793.47;4948199;28;20285;-73
2021/12/15 00:26:01;;;;;;;20.20;12.50;;;;;;;3.45;100.00;95797.69;4953720;29;20201;-73
2021/12/15 00:28:26;;;;;;;17.83;11.57;;;;;;;3.31;100.00;95801.19;4963815;28;20201;-73
2021/12/15 00:30:52;;;;;;;19.70;12.53;;;;;;;3.28;100.00;95799.28;4966461;28;20257;-73
2021/12/15 00:33:18;;;;;;;20.70;12.90;;;;;;;3.36;100.00;95794.63;4950749;29;20198;-73
2021/12/15 00:35:43;;;;;;;22.00;12.87;;;;;;;3.34;100.00;95788.84;4955130;29;20190;-73
2021/12/15 00:38:11;;;;;;;22.17;12.57;;;;;;;3.31;100.00;95803.13;4952168;29;20190;-74
2021/12/15 00:40:37;;;;;;;21.07;12.27;;;;;;;3.22;100.00;95802.75;4951922;28;20261;-74
2021/12/15 00:43:02;;;;;;;18.80;12.83;;;;;;;3.20;100.00;95797.75;4954484;28;20193;-73
2021/12/15 00:45:28;;;;;;;23.80;12.97;;;;;;;3.28;100.00;95804.66;4945860;29;20292;-73
2021/12/15 00:47:55;;;;;;;24.37;13.93;;;;;;;3.28;100.00;95796.56;4953137;29;20217;-73
2021/12/15 00:50:24;;;;;;;22.63;12.90;;;;;;;3.29;100.00;95787.28;4944024;28;20222;-74
2021/12/15 00:52:51;;;;;;;21.87;12.93;;;;;;;3.22;100.00;95792.72;4948894;29;20272;-73
2021/12/15 00:55:24;;;;;;;25.63;14.03;;;;;;;3.19;100.00;95801.59;4955283;28;20194;-73
2021/12/15 00:57:50;;;;;;;23.20;13.60;;;;;;;3.15;100.00;95798.13;4959243;28;20245;-73
2021/12/15 01:00:22;;;;;;;25.83;15.03;;;;;;;3.06;100.00;95786.97;4960737;28;20233;-74
2021/12/15 01:02:49;;;;;;;26.20;13.40;;;;;;;3.23;100.00;95798.88;4953576;29;20186;-73
2021/12/15 01:05:19;;;;;;;23.63;13.67;;;;;;;3.28;100.00;95801.97;4970173;28;20213;-74
2021/12/15 01:07:48;;;;;;;25.30;14.13;;;;;;;3.24;100.00;95814.69;4954901;28;20213;-73
2021/12/15 01:10:19;;;;;;;23.47;13.33;;;;;;;3.20;100.00;95805.06;4931291;29;20224;-73
2021/12/15 01:20:55;;;;;;;22.07;13.63;;;;;;;3.08;100.00;95827.03;4954027;29;20198;-73
2021/12/15 01:23:25;;;;;;;20.17;13.10;;;;;;;3.13;100.00;95826.66;4954270;29;20212;-73
2021/12/15 01:25:55;;;;;;;21.20;12.70;;;;;;;3.17;100.00;95824.72;4943316;28;20361;-73
2021/12/15 01:28:22;;;;;;;21.03;13.10;;;;;;;3.18;100.00;95821.66;4965345;28;20228;-73
2021/12/15 01:30:50;;;;;;;21.13;12.50;;;;;;;3.13;100.00;95822.03;4953128;28;20198;-73
2021/12/15 01:33:16;;;;;;;18.47;12.63;;;;;;;3.05;100.00;95835.91;4969722;28;20193;-73
2021/12/15 01:35:45;;;;;;;17.63;11.80;;;;;;;3.13;100.00;95832.06;4936375;29;20203;-73
2021/12/15 01:38:11;;;;;;;18.60;12.33;;;;;;;3.33;100.00;95833.19;4950229;29;20194;-73
2021/12/15 01:40:41;;;;;;;19.50;12.67;;;;;;;3.32;100.00;95829.75;4938228;29;20221;-73
2021/12/15 01:43:18;;;;;;;19.23;12.80;;;;;;;3.32;100.00;95835.13;4947006;29;20805;-73
2021/12/15 01:48:35;;;;;;;17.60;12.13;;;;;;;3.19;100.00;95833.97;4954341;28;20294;-73
2021/12/15 01:51:03;;;;;;;17.13;11.93;;;;;;;3.25;100.00;95845.94;4949909;29;20194;-73
2021/12/15 01:53:28;;;;;;;18.07;11.80;;;;;;;3.18;100.00;95839.75;4936182;29;20226;-73
2021/12/15 01:55:54;;;;;;;18.10;11.73;;;;;;;3.26;100.00;95842.06;4951971;29;20234;-73
2021/12/15 01:58:20;;;;;;;17.40;11.93;;;;;;;3.30;100.00;95829.34;4960791;28;20198;-74
2021/12/15 02:00:57;;;;;;;16.13;11.70;;;;;;;3.41;100.00;95840.91;4937196;29;20667;-73
2021/12/15 02:03:23;;;;;;;19.13;12.33;;;;;;;3.45;100.00;95847.06;4964433;28;20683;-73
2021/12/15 02:05:49;;;;;;;17.97;11.20;;;;;;;3.43;100.00;95843.97;4935305;29;20206;-73
2021/12/15 02:08:15;;;;;;;18.33;11.90;;;;;;;3.35;100.00;95836.28;4968396;28;20284;-73
2021/12/15 02:10:42;;;;;;;15.17;10.70;;;;;;;3.38;100.00;95832.78;4952309;28;20213;-73
2021/12/15 02:13:15;;;;;;;17.93;11.77;;;;;;;3.36;100.00;95833.19;4947600;29;20645;-74
2021/12/15 02:15:45;;;;;;;18.30;10.70;;;;;;;3.28;100.00;95837.06;4941954;29;20653;-74
2021/12/15 02:18:14;;;;;;;17.67;11.73;;;;;;;3.24;100.00;95835.53;4952542;28;20606;-74
2021/12/15 02:20:44;;;;;;;17.73;11.67;;;;;;;3.28;100.00;95830.88;4936128;29;20684;-73
2021/12/15 02:23:13;;;;;;;16.63;11.53;;;;;;;3.33;100.00;95825.88;4950772;29;20559;-73
2021/12/15 02:25:40;;;;;;;17.67;11.40;;;;;;;3.36;100.00;95827.03;4956723;28;20579;-73
2021/12/15 02:28:08;;;;;;;14.60;11.17;;;;;;;3.35;100.00;95828.19;4970092;28;20531;-74
2021/12/15 02:38:40;;;;;;;19.70;11.87;;;;;;;3.37;100.00;95818.53;4964085;28;20240;-73
2021/12/15 02:41:13;;;;;;;16.27;11.63;;;;;;;3.47;100.00;95819.69;4948032;28;20224;-74
2021/12/15 02:43:39;;;;;;;23.17;11.87;;;;;;;3.51;100.00;95815.03;4957680;28;20233;-73
2021/12/15 02:46:06;;;;;;;17.83;11.13;;;;;;;3.56;100.00;95818.09;4965197;28;20284;-73
2021/12/15 02:48:33;;;;;;;18.93;11.07;;;;;;;3.52;100.00;95805.78;4972095;28;20197;-74
2021/12/15 02:51:00;;;;;;;17.20;10.37;;;;;;;3.53;100.00;95818.09;4952810;28;20205;-74
2021/12/15 02:53:25;;;;;;;20.47;11.73;;;;;;;3.63;100.00;95809.22;4952217;29;20197;-73
2021/12/15 02:55:51;;;;;;;17.60;10.47;;;;;;;3.68;100.00;95812.28;4945069;28;20548;-73
2021/12/15 02:58:19;;;;;;;18.00;10.67;;;;;;;3.69;100.00;95807.66;4950761;28;20201;-73
2021/12/15 03:01:02;;;;;;;15.37;10.87;;;;;;;3.61;100.00;95806.16;4962019;28;20197;-73
2021/12/15 03:06:29;;;;;;;14.17;8.97;;;;;;;3.27;100.00;95813.16;4932445;28;20233;-73
2021/12/15 03:17:00;;;;;;;15.53;10.80;;;;;;;3.12;100.00;95814.31;4949913;28;20201;-73
2021/12/15 03:19:26;;;;;;;17.67;11.00;;;;;;;3.03;100.00;95813.94;4964035;28;20217;-73
2021/12/15 03:21:52;;;;;;;20.07;11.33;;;;;;;3.08;100.00;95806.22;4962227;28;20261;-73
2021/12/15 03:24:22;;;;;;;23.63;12.20;;;;;;;3.09;100.00;95812.41;4942781;28;20202;-73
2021/12/15 03:27:05;;;;;;;19.13;11.23;;;;;;;3.07;100.00;95807.38;4950911;28;20222;-73
2021/12/15 03:36:02;;;;;;;26.27;10.77;;;;;;;3.18;100.00;95812.78;4940804;28;20564;-73
2021/12/15 03:37:56;;;;;;;20.80;12.17;;;;;;;3.27;100.00;95819.34;4942868;28;20197;-73
2021/12/15 03:40:39;;;;;;;27.33;11.47;;;;;;;3.21;100.00;95810.06;4953170;28;20229;-73
2021/12/15 03:43:09;;;;;;;23.07;11.80;;;;;;;3.26;100.00;95803.50;4944673;28;20201;-73
2021/12/15 03:45:53;;;;;;;30.30;12.27;;;;;;;3.32;100.00;95802.75;4962118;28;20242;-74
2021/12/15 03:48:22;;;;;;;21.47;11.37;;;;;;;3.33;100.00;95804.28;4950328;28;20218;-74
2021/12/15 03:50:48;;;;;;;23.43;12.00;;;;;;;3.28;100.00;95801.97;4951904;28;20212;-73
2021/12/15 03:53:15;;;;;;;30.90;12.03;;;;;;;3.21;100.00;95798.50;4953558;28;20193;-74
2021/12/15 03:55:42;;;;;;;27.67;12.03;;;;;;;3.21;100.00;95806.59;4954835;29;20198;-74
2021/12/15 03:58:12;;;;;;;41.73;12.30;;;;;;;3.15;100.00;95800.06;4955259;29;20198;-74
2021/12/15 04:00:46;;;;;;;24.07;12.00;;;;;;;3.14;100.00;95809.31;4970151;28;20264;-73
2021/12/15 04:03:18;;;;;;;33.00;12.00;;;;;;;3.13;100.00;95810.47;4920131;29;20190;-74
2021/12/15 04:05:44;;;;;;;32.30;11.70;;;;;;;3.09;100.00;95812.41;4951320;29;20715;-75
2021/12/15 04:08:10;;;;;;;38.00;12.17;;;;;;;3.13;100.00;95813.94;4954590;29;20707;-73
2021/12/15 04:10:36;;;;;;;32.60;12.70;;;;;;;3.14;100.00;95814.72;4955924;28;20264;-73
2021/12/15 04:13:02;;;;;;;28.53;11.03;;;;;;;3.15;100.00;95816.25;4953456;28;20193;-73
2021/12/15 04:15:30;;;;;;;38.73;13.03;;;;;;;3.19;100.00;95823.19;4963751;28;20266;-73
2021/12/15 04:18:01;;;;;;;31.10;13.17;;;;;;;3.23;100.00;95831.28;4958061;28;20644;-73
2021/12/15 04:20:32;;;;;;;43.27;15.23;;;;;;;3.33;100.00;95835.88;4937914;28;20258;-73
2021/12/15 04:23:02;;;;;;;39.10;15.67;;;;;;;3.33;100.00;95836.66;4959932;28;20201;-73
2021/12/15 04:25:31;;;;;;;37.57;15.10;;;;;;;3.34;100.00;95830.09;4959917;28;20194;-73
2021/12/15 04:28:02;;;;;;;37.00;14.47;;;;;;;3.31;100.00;95830.88;4958381;28;20725;-73
2021/12/15 04:30:31;;;;;;;50.30;13.87;;;;;;;3.30;100.00;95836.66;4950484;28;20228;-73
2021/12/15 04:33:07;;;;;;;39.73;14.87;;;;;;;3.35;100.00;95837.06;4954839;28;20194;-73
2021/12/15 04:35:34;;;;;;;67.30;15.93;;;;;;;3.31;100.00;95838.22;4951354;29;20233;-73
2021/12/15 04:37:59;;;;;;;34.63;14.57;;;;;;;3.36;100.00;95843.25;4951959;28;20217;-73
2021/12/15 04:40:25;;;;;;;40.97;13.27;;;;;;;3.36;100.00;95844.00;4955314;28;20245;-73
2021/12/15 04:42:51;;;;;;;37.70;12.80;;;;;;;3.32;100.00;95847.84;4937107;29;20197;-74
2021/12/15 04:45:19;;;;;;;29.80;12.27;;;;;;;3.29;100.00;95845.94;4965968;28;20197;-73
2021/12/15 04:47:50;;;;;;;37.87;13.07;;;;;;;3.35;100.00;95850.56;4954054;28;20260;-73
2021/12/15 04:50:16;;;;;;;29.30;13.27;;;;;;;3.48;100.00;95861.72;4954810;28;20248;-73
2021/12/15 04:52:42;;;;;;;35.37;12.77;;;;;;;3.45;100.00;95846.28;4952956;28;20198;-74
2021/12/15 04:55:08;;;;;;;31.50;11.20;;;;;;;3.38;100.00;95846.28;4955510;28;20310;-73
2021/12/15 04:57:35;;;;;;;25.13;10.90;;;;;;;3.36;100.00;95844.00;4954227;28;20236;-73
2021/12/15 05:00:00;;;;;;;31.00;13.40;;;;;;;3.34;100.00;95851.69;4947115;28;20245;-73
2021/12/15 05:02:26;;;;;;;27.60;11.20;;;;;;;3.31;100.00;95860.56;4954421;29;20509;-73
2021/12/15 05:04:53;;;;;;;25.27;11.37;;;;;;;3.36;100.00;95857.47;4953452;28;20212;-73
2021/12/15 05:07:19;;;;;;;31.97;13.23;;;;;;;3.26;100.00;95855.56;4947373;28;20281;-73
2021/12/15 05:09:49;;;;;;;34.07;12.80;;;;;;;3.20;100.00;95859.81;4953769;28;20213;-73
2021/12/15 05:12:15;;;;;;;33.00;13.33;;;;;;;3.36;100.00;95862.13;4953452;28;20201;-73
2021/12/15 05:14:40;;;;;;;30.83;13.60;;;;;;;3.31;100.00;95855.19;4952752;29;20194;-73
2021/12/15 05:17:06;;;;;;;39.07;12.67;;;;;;;3.34;100.00;95851.69;4951021;29;20189;-73
2021/12/15 05:19:32;;;;;;;28.97;11.83;;;;;;;3.31;100.00;95854.44;4955302;28;20240;-73
2021/12/15 05:21:58;;;;;;;26.47;10.60;;;;;;;3.33;100.00;95855.56;4954486;29;20194;-74
2021/12/15 05:26:55;;;;;;;28.13;10.13;;;;;;;3.54;100.00;95860.97;4966895;28;20256;-73
2021/12/15 05:29:22;;;;;;;33.30;10.33;;;;;;;3.34;100.00;95878.69;4948882;28;20235;-73
2021/12/15 05:31:48;;;;;;;39.60;10.63;;;;;;;3.32;100.00;95872.94;4947842;28;20202;-73
2021/12/15 05:34:13;;;;;;;33.93;11.57;;;;;;;3.24;100.00;95870.63;4954390;29;20197;-72
2021/12/15 05:36:39;;;;;;;37.77;11.00;;;;;;;3.23;100.00;95883.34;4950382;29;20190;-73
2021/12/15 05:39:06;;;;;;;38.77;11.67;;;;;;;3.42;100.00;95877.56;4953763;28;20224;-73
2021/12/15 05:41:36;;;;;;;32.83;12.50;;;;;;;3.48;100.00;95884.09;4953189;29;20273;-73
2021/12/15 05:44:04;;;;;;;40.73;12.53;;;;;;;3.39;100.00;95881.00;4953529;29;20228;-73
2021/12/15 05:46:30;;;;;;;36.90;12.10;;;;;;;3.53;100.00;95883.69;4942634;29;20250;-73
2021/12/15 05:48:56;;;;;;;43.67;13.33;;;;;;;3.50;100.00;95895.28;4934635;29;20635;-72
2021/12/15 05:51:21;;;;;;;31.57;10.10;;;;;;;3.36;100.00;95889.13;4944861;28;20715;-73
2021/12/15 05:53:47;;;;;;;24.47;9.60;;;;;;;3.38;100.00;95886.78;4950163;28;20201;-73
2021/12/15 05:56:13;;;;;;;26.00;10.53;;;;;;;3.42;100.00;95884.88;4952949;28;20264;-73
2021/12/15 05:58:40;;;;;;;23.13;10.00;;;;;;;3.53;100.00;95899.91;4947696;28;20267;-73
2021/12/15 06:01:06;;;;;;;32.13;11.37;;;;;;;3.53;100.00;95891.03;4953462;28;20238;-73
2021/12/15 06:03:32;;;;;;;23.43;11.00;;;;;;;3.41;100.00;95897.59;4949284;28;20252;-73
2021/12/15 06:05:58;;;;;;;24.40;9.87;;;;;;;3.48;100.00;95903.00;4953099;28;20719;-73
2021/12/15 06:08:24;;;;;;;19.63;10.13;;;;;;;3.45;100.00;95905.69;4952231;29;20308;-72
2021/12/15 06:10:50;;;;;;;25.43;10.87;;;;;;;3.43;100.00;95903.38;4951091;29;20293;-72
2021/12/15 06:13:17;;;;;;;27.80;11.20;;;;;;;3.47;100.00;95897.97;4951457;28;20629;-72
2021/12/15 06:15:44;;;;;;;28.20;11.07;;;;;;;3.50;100.00;95908.78;4960190;28;20624;-72
2021/12/15 06:18:13;;;;;;;25.03;10.40;;;;;;;3.51;100.00;95913.03;4960286;28;20203;-72
2021/12/15 06:20:40;;;;;;;33.27;12.43;;;;;;;3.51;100.00;95915.72;4951734;28;20229;-72
2021/12/15 06:23:11;;;;;;;29.13;11.37;;;;;;;3.51;100.00;95914.97;4954279;28;20225;-72
2021/12/15 06:25:40;;;;;;;30.37;12.77;;;;;;;3.48;100.00;95923.81;4957637;28;20209;-73
2021/12/15 06:28:06;;;;;;;29.33;11.87;;;;;;;3.61;100.00;95925.00;4951706;28;20276;-72
2021/12/15 06:30:34;;;;;;;33.10;11.90;;;;;;;3.56;100.00;95931.53;4942790;28;20602;-72
2021/12/15 06:33:28;;;;;;;27.90;12.10;;;;;;;3.58;100.00;95929.22;4954291;28;20273;-73
2021/12/15 06:36:03;;;;;;;37.73;16.77;;;;;;;3.48;100.00;95935.41;4952807;28;20276;-72
2021/12/15 06:38:36;;;;;;;34.30;16.10;;;;;;;3.60;100.00;95940.41;4946233;29;20651;-72
2021/12/15 06:41:08;;;;;;;32.17;14.30;;;;;;;3.48;100.00;95932.69;4928221;29;20252;-72
2021/12/15 06:43:36;;;;;;;32.27;12.30;;;;;;;3.52;100.00;95941.59;4954768;28;20201;-72
2021/12/15 06:46:36;;;;;;;43.53;17.67;;;;;;;3.48;100.00;95945.41;4953570;29;20203;-72
2021/12/15 06:59:55;;;;;;;36.30;14.80;;;;;;;3.62;100.00;95948.91;4952184;28;20680;-72
2021/12/15 07:02:23;;;;;;;35.00;14.80;;;;;;;3.52;100.00;95952.38;4946157;29;20198;-72
2021/12/15 07:04:48;;;;;;;29.50;13.20;;;;;;;3.46;100.00;95958.56;4934730;29;20197;-72
2021/12/15 07:07:14;;;;;;;33.73;13.97;;;;;;;3.50;100.00;95956.63;4951378;29;20236;-72
2021/12/15 07:09:41;;;;;;;30.93;12.17;;;;;;;3.39;100.00;95961.25;4947353;28;20211;-73
2021/12/15 07:12:07;;;;;;;34.10;13.77;;;;;;;3.47;100.00;95955.47;4943671;29;20201;-73
2021/12/15 07:14:33;;;;;;;21.30;11.33;;;;;;;3.44;100.00;95972.44;4951116;29;20197;-72
2021/12/15 07:16:59;;;;;;;22.90;11.43;;;;;;;3.41;100.00;95975.16;4950924;29;20205;-72
2021/12/15 07:22:27;;;;;;;19.90;11.73;;;;;;;3.36;100.00;95975.53;4938854;29;20206;-72
2021/12/15 07:24:53;;;;;;;23.43;12.67;;;;;;;3.41;100.00;95981.31;4953219;28;20194;-72
2021/12/15 07:27:18;;;;;;;27.07;14.70;;;;;;;3.44;100.00;95980.56;4954116;28;20236;-72
2021/12/15 07:29:44;;;;;;;27.83;13.67;;;;;;;3.36;100.00;95983.63;4954716;28;20210;-72
2021/12/15 07:32:10;;;;;;;28.47;13.67;;;;;;;3.42;100.00;95988.25;4950008;28;20215;-73
2021/12/15 07:34:35;;;;;;;28.27;12.93;;;;;;;3.39;100.00;95980.91;4956579;28;20304;-73
2021/12/15 07:37:01;;;;;;;26.30;13.13;;;;;;;3.39;100.00;95985.56;4954035;28;20225;-73
2021/12/15 07:39:27;;;;;;;24.80;13.03;;;;;;;3.40;100.00;95985.16;4956436;28;20223;-72
2021/12/15 07:42:03;;;;;;;29.90;14.03;;;;;;;3.47;100.00;95987.88;4954078;29;20213;-72
2021/12/15 07:44:30;;;;;;;26.07;13.83;;;;;;;3.58;100.00;95990.59;4946295;29;20191;-73
2021/12/15 07:46:56;;;;;;;25.57;13.33;;;;;;;3.51;100.00;95987.88;4950698;29;20214;-72
2021/12/15 07:49:24;;;;;;;25.37;14.30;;;;;;;3.53;100.00;95994.44;4956785;28;20750;-73
2021/12/15 07:51:59;;;;;;;24.20;13.67;;;;;;;3.59;100.00;95998.31;4952946;29;20238;-72
2021/12/15 07:54:25;;;;;;;21.17;12.43;;;;;;;3.54;100.00;95997.91;4960083;28;20203;-73
2021/12/15 07:56:51;;;;;;;20.93;12.47;;;;;;;3.50;100.00;95997.13;4939857;29;20190;-73
2021/12/15 07:59:17;;;;;;;21.53;12.53;;;;;;;3.49;100.00;95990.19;4956191;28;20217;-72
2021/12/15 08:01:43;;;;;;;19.37;12.03;;;;;;;3.50;100.00;95997.91;4954603;28;20197;-73
2021/12/15 08:04:09;;;;;;;20.17;11.53;;;;;;;3.58;100.00;96002.16;4939993;29;20707;-73
2021/12/15 08:06:36;;;;;;;21.37;12.57;;;;;;;3.54;100.00;95997.91;4955641;28;20211;-73
2021/12/15 08:09:03;;;;;;;18.97;11.53;;;;;;;3.57;100.00;96008.72;4955316;28;20691;-73
2021/12/15 08:11:28;;;;;;;21.60;12.87;;;;;;;3.61;100.00;96011.44;4955447;28;20540;-72
2021/12/15 08:13:55;;;;;;;19.10;11.83;;;;;;;3.75;100.00;96019.50;4944773;29;20199;-74
2021/12/15 08:16:21;;;;;;;24.30;12.17;;;;;;;3.70;100.00;96019.91;4942078;29;20670;-73
2021/12/15 08:18:47;;;;;;;18.10;10.67;;;;;;;3.72;100.00;96021.06;4957152;28;20217;-72
2021/12/15 08:21:13;;;;;;;17.80;12.03;;;;;;;3.67;100.00;96024.16;4964874;28;20591;-72
2021/12/15 08:23:38;;;;;;;22.97;12.80;;;;;;;3.71;100.00;96024.16;4946984;28;20254;-72
2021/12/15 08:26:04;;;;;;;21.97;11.90;;;;;;;3.69;100.00;96029.19;4953615;28;20245;-73
2021/12/15 08:28:30;;;;;;;20.10;12.20;;;;;;;3.66;100.00;96032.66;4954756;28;20704;-73
2021/12/15 08:30:59;;;;;;;24.37;13.27;;;;;;;3.81;100.00;96031.50;4955616;28;20196;-72
2021/12/15 08:33:26;;;;;;;22.97;12.97;;;;;;;3.80;100.00;96021.84;4954229;28;20646;-73
2021/12/15 08:35:58;;;;;;;20.37;12.03;;;;;;;3.79;100.00;96025.69;4954033;29;20278;-73
2021/12/15 08:38:27;;;;;;;22.97;12.33;;;;;;;3.92;100.00;96026.09;4951601;28;20214;-73
2021/12/15 08:40:53;;;;;;;20.43;11.20;;;;;;;3.92;100.00;96026.09;4953119;28;20206;-72
2021/12/15 08:43:20;;;;;;;19.87;11.07;;;;;;;3.97;100.00;96031.13;4937520;28;20208;-73
2021/12/15 08:45:53;;;;;;;21.33;10.40;;;;;;;4.01;100.00;96026.47;4938718;29;20274;-73
2021/12/15 08:48:19;;;;;;;15.57;10.00;;;;;;;4.19;100.00;96030.69;4954759;28;20209;-72
2021/12/15 08:50:45;;;;;;;22.13;10.57;;;;;;;4.16;100.00;96028.78;4965544;28;20288;-73
2021/12/15 08:53:12;;;;;;;16.30;9.60;;;;;;;4.20;100.00;96034.97;4942154;28;20199;-72
2021/12/15 08:55:43;;;;;;;16.13;9.50;;;;;;;4.15;100.00;96029.94;4936418;29;20258;-72
2021/12/15 08:58:11;;;;;;;15.00;8.83;;;;;;;4.21;100.00;96022.22;4955670;28;20194;-72
2021/12/15 09:00:39;;;;;;;17.43;10.00;;;;;;;4.26;100.00;96019.13;4961650;28;20309;-71
2021/12/15 09:03:05;;;;;;;12.63;8.13;;;;;;;4.32;100.00;96012.91;4954505;29;20212;-71
2021/12/15 09:05:31;;;;;;;11.63;7.23;;;;;;;4.37;100.00;96017.16;4968648;28;20197;-72
2021/12/15 09:07:59;;;;;;;12.70;8.37;;;;;;;4.39;100.00;96033.75;4951810;29;20225;-71
2021/12/15 09:10:27;;;;;;;10.67;6.57;;;;;;;4.42;100.00;96022.16;4953430;29;20217;-73
2021/12/15 09:12:53;;;;;;;7.30;5.70;;;;;;;4.50;100.00;96016.34;4953740;28;20212;-73
2021/12/15 09:15:19;;;;;;;8.27;5.60;;;;;;;4.57;100.00;96029.06;4950925;28;20198;-72
2021/12/15 09:17:45;;;;;;;8.97;6.57;;;;;;;4.78;100.00;96021.69;4953160;28;20197;-73
2021/12/15 09:20:22;;;;;;;7.83;6.13;;;;;;;4.70;100.00;96027.50;4954722;28;20308;-72
2021/12/15 09:22:48;;;;;;;7.87;5.23;;;;;;;4.65;100.00;96025.19;4952332;29;20685;-72
2021/12/15 09:25:15;;;;;;;9.63;6.20;;;;;;;4.71;100.00;96037.16;4969042;28;20308;-73
2021/12/15 09:27:42;;;;;;;9.60;6.53;;;;;;;4.70;100.00;96025.56;4960660;28;20209;-72
2021/12/15 09:30:12;;;;;;;8.13;6.37;;;;;;;4.70;100.00;96030.97;4967424;28;20244;-73
2021/12/15 09:32:38;;;;;;;9.43;6.43;;;;;;;4.73;100.00;96032.13;4951297;28;20202;-73
2021/12/15 09:35:06;;;;;;;8.60;6.03;;;;;;;4.72;100.00;96031.34;4957852;28;20197;-73
2021/12/15 09:37:32;;;;;;;8.87;6.60;;;;;;;4.73;100.00;96035.59;4951342;28;20194;-72
2021/12/15 09:39:58;;;;;;;8.50;5.37;;;;;;;4.73;100.00;96035.59;4953934;28;20313;-73
2021/12/15 09:42:31;;;;;;;8.43;5.97;;;;;;;4.77;100.00;96032.88;4950769;28;20206;-73
2021/12/15 09:45:04;;;;;;;6.80;4.80;;;;;;;4.69;100.00;96031.38;4951396;29;20206;-72
2021/12/15 09:47:58;;;;;;;5.60;4.10;;;;;;;4.60;100.00;96026.38;4953854;28;20221;-72
2021/12/15 10:04:32;;;;;;;5.07;3.67;;;;;;;4.68;100.00;96014.34;4958813;28;20215;-72
2021/12/15 10:17:23;;;;;;;4.10;3.60;;;;;;;4.82;100.00;96006.19;4938758;29;20767;-73
2021/12/15 10:18:28;;;;;;;4.10;3.23;;;;;;;6.87;100.00;95997.97;4952694;28;20890;-73
2021/12/15 10:20:55;;;;;;;6.93;3.93;;;;;;;6.10;100.00;95996.88;4947696;28;20277;-73
2021/12/15 10:23:25;;;;;;;5.63;4.20;;;;;;;5.89;100.00;96009.81;4952575;28;20603;-72
2021/12/15 10:25:54;;;;;;;4.53;3.43;;;;;;;5.85;100.00;96007.13;4950154;28;20633;-73
2021/12/15 10:28:27;;;;;;;5.07;4.03;;;;;;;5.72;100.00;95997.91;4971135;28;20690;-74
2021/12/15 10:30:56;;;;;;;5.20;4.03;;;;;;;5.63;100.00;96002.25;4958103;28;20569;-73
2021/12/15 10:33:31;;;;;;;5.27;4.50;;;;;;;5.86;100.00;96005.97;4957271;28;20207;-72
2021/12/15 10:36:01;;;;;;;5.90;4.80;;;;;;;6.41;100.00;96000.44;4930634;29;20193;-72
2021/12/15 10:38:53;;;;;;;5.63;4.43;;;;;;;6.95;100.00;95998.69;4950347;28;20216;-72
2021/12/15 10:41:32;;;;;;;5.27;4.30;;;;;;;6.44;100.00;95990.72;4954248;28;20194;-73
2021/12/15 10:44:01;;;;;;;5.07;4.17;;;;;;;5.81;100.00;96008.31;4948146;29;20205;-73
2021/12/15 10:46:32;;;;;;;5.43;4.67;;;;;;;5.40;100.00;95986.53;4948702;29;20989;-73
2021/12/15 10:49:03;;;;;;;5.57;4.70;;;;;;;5.10;100.00;95986.34;4952789;28;20228;-74
2021/12/15 10:51:55;;;;;;;5.80;5.00;;;;;;;5.01;100.00;95996.03;4951881;29;20194;-72
2021/12/15 10:54:25;;;;;;;6.70;4.70;;;;;;;4.93;100.00;95998.81;4937301;29;20260;-73
2021/12/15 10:56:56;;;;;;;7.17;5.47;;;;;;;4.92;100.00;95999.97;4940522;28;20801;-72
2021/12/15 10:59:25;;;;;;;4.67;3.90;;;;;;;4.50;100.00;96000.13;4957878;28;20228;-72
2021/12/15 11:01:53;;;;;;;5.27;3.20;;;;;;;4.57;100.00;95988.50;4945379;28;20208;-72
2021/12/15 11:04:34;;;;;;;3.23;2.87;;;;;;;4.61;100.00;95994.69;4953116;28;20348;-73
2021/12/15 11:07:05;;;;;;;3.17;2.87;;;;;;;4.50;100.00;95999.34;4947470;28;20223;-72
2021/12/15 11:09:36;;;;;;;5.03;2.83;;;;;;;4.54;100.00;95990.06;4961420;28;20240;-72
2021/12/15 11:12:11;;;;;;;2.83;2.50;;;;;;;4.47;100.00;95992.78;4944009;28;20629;-73
2021/12/15 11:14:41;;;;;;;3.13;2.60;;;;;;;4.37;100.00;95990.88;4948824;28;20229;-73
2021/12/15 11:17:19;;;;;;;3.13;2.80;;;;;;;4.50;100.00;95983.88;4950333;28;20584;-73
2021/12/15 11:19:59;;;;;;;4.17;3.30;;;;;;;4.61;100.00;95987.34;4934965;28;20306;-73
2021/12/15 11:22:30;;;;;;;3.57;3.23;;;;;;;4.58;100.00;95973.81;4954724;28;20311;-73
2021/12/15 11:24:57;;;;;;;5.80;3.67;;;;;;;4.66;100.00;95981.53;4935245;29;20193;-73
2021/12/15 11:27:23;;;;;;;3.90;2.87;;;;;;;4.68;100.00;95978.44;4948449;29;20312;-72
2021/12/15 11:29:48;;;;;;;3.23;2.80;;;;;;;4.70;100.00;95976.09;4951234;28;20213;-73
2021/12/15 11:32:36;;;;;;;3.40;3.10;;;;;;;4.73;100.00;95970.66;4950263;29;20667;-72
2021/12/15 11:35:23;;;;;;;3.60;2.87;;;;;;;4.70;100.00;95971.44;4936521;29;20245;-72
2021/12/15 11:38:03;;;;;;;3.27;2.97;;;;;;;4.71;100.00;95978.41;4950337;29;20209;-72
2021/12/15 11:40:37;;;;;;;3.90;3.50;;;;;;;4.69;100.00;95978.03;4960303;28;20297;-72
2021/12/15 11:43:04;;;;;;;3.43;3.13;;;;;;;4.69;100.00;95975.31;4951607;28;20204;-73
2021/12/15 11:45:30;;;;;;;3.80;3.27;;;;;;;4.71;100.00;95973.00;4948266;29;20208;-72
2021/12/15 11:48:33;;;;;;;7.10;3.57;;;;;;;4.71;100.00;95977.63;4946031;29;20214;-73
2021/12/15 11:51:06;;;;;;;3.70;3.40;;;;;;;4.70;100.00;95976.84;4960522;28;20201;-73
2021/12/15 11:53:46;;;;;;;3.73;3.43;;;;;;;4.74;100.00;95969.50;4951410;28;20293;-72
2021/12/15 11:56:23;;;;;;;3.73;3.33;;;;;;;4.67;100.00;95968.75;4950335;29;20202;-72
2021/12/15 11:58:52;;;;;;;3.83;3.53;;;;;;;4.70;100.00;95979.56;4948763;28;20224;-73
2021/12/15 12:01:38;;;;;;;4.33;3.67;;;;;;;4.65;100.00;95974.56;4943674;29;20207;-73
2021/12/15 12:04:13;;;;;;;3.43;3.13;;;;;;;4.62;100.00;95967.22;4943240;29;20225;-72
2021/12/15 12:06:39;;;;;;;3.90;3.53;;;;;;;4.54;100.00;95963.00;4947600;29;20198;-73
2021/12/15 12:09:04;;;;;;;4.10;3.70;;;;;;;4.54;100.00;95963.00;4945412;28;20704;-73
2021/12/15 12:11:33;;;;;;;4.10;3.70;;;;;;;4.49;100.00;95959.94;4942386;29;20216;-72
2021/12/15 12:14:00;;;;;;;4.20;3.80;;;;;;;4.46;100.00;95958.03;4949057;28;20233;-72
2021/12/15 12:16:26;;;;;;;3.20;2.90;;;;;;;4.49;100.00;95958.00;4956233;28;20194;-73
2021/12/15 12:18:52;;;;;;;4.30;3.90;;;;;;;4.48;100.00;95958.41;4954661;28;20626;-73
2021/12/15 12:21:18;;;;;;;4.50;4.10;;;;;;;4.31;100.00;95951.13;4954285;28;20214;-73
2021/12/15 12:23:48;;;;;;;4.20;3.80;;;;;;;4.28;100.00;95952.66;4948784;28;20205;-73
2021/12/15 12:26:14;;;;;;;4.90;4.40;;;;;;;4.36;100.00;95943.34;4954530;28;20301;-73
2021/12/15 12:28:46;;;;;;;4.27;3.87;;;;;;;4.35;100.00;95943.75;4955073;28;20237;-73
2021/12/15 12:31:21;;;;;;;5.23;4.73;;;;;;;4.43;100.00;95935.22;4957031;28;20194;-73
2021/12/15 12:33:49;;;;;;;4.83;4.10;;;;;;;4.44;100.00;95941.41;4948771;28;20189;-73
2021/12/15 12:36:18;;;;;;;5.53;4.33;;;;;;;4.40;100.00;95935.22;4954229;29;20217;-73
2021/12/15 12:38:51;;;;;;;4.97;4.47;;;;;;;4.28;100.00;95941.06;4953164;28;20688;-73
2021/12/15 12:41:25;;;;;;;4.40;4.00;;;;;;;4.36;100.00;95929.09;4955158;28;20237;-73
2021/12/15 12:43:54;;;;;;;4.80;4.30;;;;;;;4.49;100.00;95933.66;4950949;29;20232;-73
2021/12/15 12:46:49;;;;;;;6.97;5.00;;;;;;;4.58;100.00;95930.53;4947706;29;20204;-73